sensor_id;sensor_type;location;lat;lon;timestamp;temperature;humidity
38746;DHT22;24488;0.000;0.000;2023-11-19T00:02:08;23.00;50.20
38746;DHT22;24488;0.000;0.000;2023-11-19T00:04:37;23.10;50.20
38746;DHT22;24488;0.000;0.000;2023-11-19T00:07:04;23.10;50.30
38746;DHT22;24488;0.000;0.000;2023-11-19T00:09:32;23.10;49.80
38746;DHT22;24488;0.000;0.000;2023-11-19T00:11:58;23.00;50.20
38746;DHT22;24488;0.000;0.000;2023-11-19T00:14:25;23.10;50.30
38746;DHT22;24488;0.000;0.000;2023-11-19T00:16:51;23.10;50.30
38746;DHT22;24488;0.000;0.000;2023-11-19T00:19:17;23.10;49.80
38746;DHT22;24488;0.000;0.000;2023-11-19T00:21:42;23.10;50.20
38746;DHT22;24488;0.000;0.000;2023-11-19T00:24:08;23.10;50.30
38746;DHT22;24488;0.000;0.000;2023-11-19T00:26:34;23.10;50.20
38746;DHT22;24488;0.000;0.000;2023-11-19T00:28:59;23.10;49.80
38746;DHT22;24488;0.000;0.000;2023-11-19T00:31:25;23.10;50.30
38746;DHT22;24488;0.000;0.000;2023-11-19T00:33:54;23.10;50.20
38746;DHT22;24488;0.000;0.000;2023-11-19T00:36:20;23.10;50.20
38746;DHT22;24488;0.000;0.000;2023-11-19T00:38:46;23.10;49.80
38746;DHT22;24488;0.000;0.000;2023-11-19T00:41:11;23.10;50.20
38746;DHT22;24488;0.000;0.000;2023-11-19T00:43:37;23.10;50.80
38746;DHT22;24488;0.000;0.000;2023-11-19T00:46:03;23.10;50.20
38746;DHT22;24488;0.000;0.000;2023-11-19T00:48:31;23.20;49.80
38746;DHT22;24488;0.000;0.000;2023-11-19T00:50:57;23.10;50.20
38746;DHT22;24488;0.000;0.000;2023-11-19T00:53:23;23.20;50.20
38746;DHT22;24488;0.000;0.000;2023-11-19T00:55:48;23.20;50.30
38746;DHT22;24488;0.000;0.000;2023-11-19T00:58:14;23.20;49.80
38746;DHT22;24488;0.000;0.000;2023-11-19T01:00:39;23.20;50.30
38746;DHT22;24488;0.000;0.000;2023-11-19T01:03:05;23.20;50.20
38746;DHT22;24488;0.000;0.000;2023-11-19T01:05:32;23.20;50.20
38746;DHT22;24488;0.000;0.000;2023-11-19T01:07:58;23.20;49.60
38746;DHT22;24488;0.000;0.000;2023-11-19T01:10:23;23.20;50.00
38746;DHT22;24488;0.000;0.000;2023-11-19T01:12:51;23.20;49.90
38746;DHT22;24488;0.000;0.000;2023-11-19T01:15:17;23.20;50.00
38746;DHT22;24488;0.000;0.000;2023-11-19T01:17:44;23.20;50.00
38746;DHT22;24488;0.000;0.000;2023-11-19T01:20:10;23.10;49.60
38746;DHT22;24488;0.000;0.000;2023-11-19T01:22:38;23.10;50.10
38746;DHT22;24488;0.000;0.000;2023-11-19T01:25:04;23.10;50.70
38746;DHT22;24488;0.000;0.000;2023-11-19T01:27:30;23.10;50.00
38746;DHT22;24488;0.000;0.000;2023-11-19T01:29:56;23.10;49.60
38746;DHT22;24488;0.000;0.000;2023-11-19T01:32:22;23.20;50.10
38746;DHT22;24488;0.000;0.000;2023-11-19T01:34:49;23.10;50.10
38746;DHT22;24488;0.000;0.000;2023-11-19T01:37:15;23.10;50.10
38746;DHT22;24488;0.000;0.000;2023-11-19T01:39:43;23.10;49.70
38746;DHT22;24488;0.000;0.000;2023-11-19T01:42:09;23.10;50.20
38746;DHT22;24488;0.000;0.000;2023-11-19T01:44:34;23.10;50.20
38746;DHT22;24488;0.000;0.000;2023-11-19T01:47:00;23.10;50.20
38746;DHT22;24488;0.000;0.000;2023-11-19T01:49:26;23.10;49.80
38746;DHT22;24488;0.000;0.000;2023-11-19T01:51:52;23.10;50.30
38746;DHT22;24488;0.000;0.000;2023-11-19T01:54:17;23.10;50.20
38746;DHT22;24488;0.000;0.000;2023-11-19T01:56:43;23.20;50.30
38746;DHT22;24488;0.000;0.000;2023-11-19T01:59:09;23.20;49.90
38746;DHT22;24488;0.000;0.000;2023-11-19T02:01:36;23.10;50.40
38746;DHT22;24488;0.000;0.000;2023-11-19T02:04:05;23.20;50.40
38746;DHT22;24488;0.000;0.000;2023-11-19T02:06:32;23.20;50.40
38746;DHT22;24488;0.000;0.000;2023-11-19T02:08:58;23.20;50.00
38746;DHT22;24488;0.000;0.000;2023-11-19T02:11:24;23.20;51.10
38746;DHT22;24488;0.000;0.000;2023-11-19T02:13:55;23.20;50.50
38746;DHT22;24488;0.000;0.000;2023-11-19T02:16:21;23.20;50.60
38746;DHT22;24488;0.000;0.000;2023-11-19T02:18:47;23.20;50.20
38746;DHT22;24488;0.000;0.000;2023-11-19T02:21:13;23.20;50.70
38746;DHT22;24488;0.000;0.000;2023-11-19T02:23:40;23.20;50.70
38746;DHT22;24488;0.000;0.000;2023-11-19T02:26:22;23.20;50.60
38746;DHT22;24488;0.000;0.000;2023-11-19T02:28:53;23.20;50.10
38746;DHT22;24488;0.000;0.000;2023-11-19T02:31:19;23.20;50.60
38746;DHT22;24488;0.000;0.000;2023-11-19T02:33:45;23.20;50.60
38746;DHT22;24488;0.000;0.000;2023-11-19T02:36:11;23.20;50.50
38746;DHT22;24488;0.000;0.000;2023-11-19T02:38:36;23.20;50.10
38746;DHT22;24488;0.000;0.000;2023-11-19T02:41:06;23.20;50.50
38746;DHT22;24488;0.000;0.000;2023-11-19T02:43:32;23.20;50.50
38746;DHT22;24488;0.000;0.000;2023-11-19T02:46:04;23.20;50.50
38746;DHT22;24488;0.000;0.000;2023-11-19T02:48:34;23.20;50.00
38746;DHT22;24488;0.000;0.000;2023-11-19T02:51:03;23.20;50.40
38746;DHT22;24488;0.000;0.000;2023-11-19T02:53:29;23.20;50.40
38746;DHT22;24488;0.000;0.000;2023-11-19T02:55:55;23.20;50.40
38746;DHT22;24488;0.000;0.000;2023-11-19T02:58:27;23.20;50.00
38746;DHT22;24488;0.000;0.000;2023-11-19T03:00:54;23.20;50.50
38746;DHT22;24488;0.000;0.000;2023-11-19T03:03:23;23.20;50.50
38746;DHT22;24488;0.000;0.000;2023-11-19T03:05:54;23.20;50.60
38746;DHT22;24488;0.000;0.000;2023-11-19T03:08:20;23.20;50.20
38746;DHT22;24488;0.000;0.000;2023-11-19T03:10:46;23.20;50.70
38746;DHT22;24488;0.000;0.000;2023-11-19T03:13:12;23.20;50.70
38746;DHT22;24488;0.000;0.000;2023-11-19T03:15:47;23.20;50.70
38746;DHT22;24488;0.000;0.000;2023-11-19T03:18:13;23.20;50.30
38746;DHT22;24488;0.000;0.000;2023-11-19T03:20:38;23.20;50.70
38746;DHT22;24488;0.000;0.000;2023-11-19T03:23:04;23.20;50.70
38746;DHT22;24488;0.000;0.000;2023-11-19T03:25:31;23.20;50.70
38746;DHT22;24488;0.000;0.000;2023-11-19T03:28:01;23.20;50.20
38746;DHT22;24488;0.000;0.000;2023-11-19T03:30:28;23.20;50.70
38746;DHT22;24488;0.000;0.000;2023-11-19T03:32:57;23.20;50.70
38746;DHT22;24488;0.000;0.000;2023-11-19T03:35:23;23.20;50.70
38746;DHT22;24488;0.000;0.000;2023-11-19T03:37:49;23.20;50.70
38746;DHT22;24488;0.000;0.000;2023-11-19T03:40:16;23.20;50.10
38746;DHT22;24488;0.000;0.000;2023-11-19T03:42:42;23.20;50.60
38746;DHT22;24488;0.000;0.000;2023-11-19T03:45:07;23.20;50.40
38746;DHT22;24488;0.000;0.000;2023-11-19T03:47:37;23.20;50.50
38746;DHT22;24488;0.000;0.000;2023-11-19T03:50:03;23.30;49.90
38746;DHT22;24488;0.000;0.000;2023-11-19T03:52:30;23.30;50.30
38746;DHT22;24488;0.000;0.000;2023-11-19T03:54:55;23.30;50.30
38746;DHT22;24488;0.000;0.000;2023-11-19T03:57:22;23.20;50.20
38746;DHT22;24488;0.000;0.000;2023-11-19T03:59:48;23.20;49.70
38746;DHT22;24488;0.000;0.000;2023-11-19T04:02:14;23.20;50.10
38746;DHT22;24488;0.000;0.000;2023-11-19T04:04:40;23.20;50.10
38746;DHT22;24488;0.000;0.000;2023-11-19T04:07:05;23.20;50.10
38746;DHT22;24488;0.000;0.000;2023-11-19T04:09:31;23.20;49.70
38746;DHT22;24488;0.000;0.000;2023-11-19T04:12:00;23.20;50.20
38746;DHT22;24488;0.000;0.000;2023-11-19T04:14:26;23.20;50.20
38746;DHT22;24488;0.000;0.000;2023-11-19T04:16:51;23.10;50.20
38746;DHT22;24488;0.000;0.000;2023-11-19T04:19:18;23.10;49.70
38746;DHT22;24488;0.000;0.000;2023-11-19T04:21:43;23.10;50.10
38746;DHT22;24488;0.000;0.000;2023-11-19T04:24:09;23.20;50.10
38746;DHT22;24488;0.000;0.000;2023-11-19T04:26:40;23.20;50.00
38746;DHT22;24488;0.000;0.000;2023-11-19T04:29:13;23.10;49.50
38746;DHT22;24488;0.000;0.000;2023-11-19T04:31:40;23.10;50.50
38746;DHT22;24488;0.000;0.000;2023-11-19T04:34:06;23.20;50.00
38746;DHT22;24488;0.000;0.000;2023-11-19T04:36:35;23.10;50.00
38746;DHT22;24488;0.000;0.000;2023-11-19T04:39:00;23.10;49.60
38746;DHT22;24488;0.000;0.000;2023-11-19T04:41:26;23.10;50.10
38746;DHT22;24488;0.000;0.000;2023-11-19T04:43:55;23.10;50.00
38746;DHT22;24488;0.000;0.000;2023-11-19T04:46:21;23.10;50.10
38746;DHT22;24488;0.000;0.000;2023-11-19T04:48:46;23.00;49.70
38746;DHT22;24488;0.000;0.000;2023-11-19T04:51:12;23.00;50.10
38746;DHT22;24488;0.000;0.000;2023-11-19T04:53:38;23.00;50.10
38746;DHT22;24488;0.000;0.000;2023-11-19T04:56:12;23.00;50.10
38746;DHT22;24488;0.000;0.000;2023-11-19T04:58:38;22.90;49.70
38746;DHT22;24488;0.000;0.000;2023-11-19T05:01:04;22.90;50.10
38746;DHT22;24488;0.000;0.000;2023-11-19T05:03:30;22.90;50.20
38746;DHT22;24488;0.000;0.000;2023-11-19T05:05:57;22.90;50.20
38746;DHT22;24488;0.000;0.000;2023-11-19T05:08:22;22.90;49.70
38746;DHT22;24488;0.000;0.000;2023-11-19T05:10:48;22.90;50.20
38746;DHT22;24488;0.000;0.000;2023-11-19T05:13:14;22.90;50.20
38746;DHT22;24488;0.000;0.000;2023-11-19T05:15:40;22.90;50.30
38746;DHT22;24488;0.000;0.000;2023-11-19T05:18:06;22.90;49.80
38746;DHT22;24488;0.000;0.000;2023-11-19T05:20:31;22.90;50.30
38746;DHT22;24488;0.000;0.000;2023-11-19T05:22:57;22.80;50.20
38746;DHT22;24488;0.000;0.000;2023-11-19T05:25:25;22.80;50.20
38746;DHT22;24488;0.000;0.000;2023-11-19T05:27:52;22.90;50.20
38746;DHT22;24488;0.000;0.000;2023-11-19T05:30:17;22.80;49.70
38746;DHT22;24488;0.000;0.000;2023-11-19T05:32:43;22.90;50.20
38746;DHT22;24488;0.000;0.000;2023-11-19T05:35:09;22.80;50.10
38746;DHT22;24488;0.000;0.000;2023-11-19T05:37:34;22.80;50.10
38746;DHT22;24488;0.000;0.000;2023-11-19T05:40:00;22.80;49.70
38746;DHT22;24488;0.000;0.000;2023-11-19T05:42:28;22.80;50.20
38746;DHT22;24488;0.000;0.000;2023-11-19T05:44:54;22.80;50.30
38746;DHT22;24488;0.000;0.000;2023-11-19T05:47:19;22.80;50.30
38746;DHT22;24488;0.000;0.000;2023-11-19T05:49:45;22.80;49.80
38746;DHT22;24488;0.000;0.000;2023-11-19T05:52:10;22.80;50.30
38746;DHT22;24488;0.000;0.000;2023-11-19T05:54:37;22.80;50.30
38746;DHT22;24488;0.000;0.000;2023-11-19T05:57:04;22.70;50.30
38746;DHT22;24488;0.000;0.000;2023-11-19T05:59:30;22.70;49.90
38746;DHT22;24488;0.000;0.000;2023-11-19T06:01:57;22.80;50.40
38746;DHT22;24488;0.000;0.000;2023-11-19T06:04:23;22.80;50.30
38746;DHT22;24488;0.000;0.000;2023-11-19T06:06:48;22.80;50.20
38746;DHT22;24488;0.000;0.000;2023-11-19T06:09:14;22.80;49.70
38746;DHT22;24488;0.000;0.000;2023-11-19T06:11:39;22.80;50.20
38746;DHT22;24488;0.000;0.000;2023-11-19T06:14:05;22.80;50.20
38746;DHT22;24488;0.000;0.000;2023-11-19T06:16:31;22.80;50.10
38746;DHT22;24488;0.000;0.000;2023-11-19T06:18:57;22.80;49.70
38746;DHT22;24488;0.000;0.000;2023-11-19T06:21:22;22.80;50.20
38746;DHT22;24488;0.000;0.000;2023-11-19T06:23:48;22.80;50.20
38746;DHT22;24488;0.000;0.000;2023-11-19T06:26:14;22.80;50.10
38746;DHT22;24488;0.000;0.000;2023-11-19T06:28:39;22.80;49.80
38746;DHT22;24488;0.000;0.000;2023-11-19T06:31:05;22.80;50.20
38746;DHT22;24488;0.000;0.000;2023-11-19T06:33:31;22.80;50.20
38746;DHT22;24488;0.000;0.000;2023-11-19T06:35:56;22.80;50.20
38746;DHT22;24488;0.000;0.000;2023-11-19T06:38:22;22.80;49.70
38746;DHT22;24488;0.000;0.000;2023-11-19T06:40:47;22.80;50.20
38746;DHT22;24488;0.000;0.000;2023-11-19T06:43:13;22.80;50.20
38746;DHT22;24488;0.000;0.000;2023-11-19T06:45:39;23.50;50.50
38746;DHT22;24488;0.000;0.000;2023-11-19T06:48:05;22.80;49.70
38746;DHT22;24488;0.000;0.000;2023-11-19T06:50:31;22.80;50.10
38746;DHT22;24488;0.000;0.000;2023-11-19T06:52:57;22.80;50.10
38746;DHT22;24488;0.000;0.000;2023-11-19T06:55:22;22.80;50.10
38746;DHT22;24488;0.000;0.000;2023-11-19T06:57:48;22.80;50.10
38746;DHT22;24488;0.000;0.000;2023-11-19T07:00:13;22.80;49.60
38746;DHT22;24488;0.000;0.000;2023-11-19T07:02:39;22.80;50.10
38746;DHT22;24488;0.000;0.000;2023-11-19T07:05:05;22.80;50.10
38746;DHT22;24488;0.000;0.000;2023-11-19T07:07:31;22.80;50.10
38746;DHT22;24488;0.000;0.000;2023-11-19T07:09:58;22.80;49.70
38746;DHT22;24488;0.000;0.000;2023-11-19T07:12:23;22.80;50.20
38746;DHT22;24488;0.000;0.000;2023-11-19T07:14:52;22.80;50.10
38746;DHT22;24488;0.000;0.000;2023-11-19T07:17:18;22.80;50.10
38746;DHT22;24488;0.000;0.000;2023-11-19T07:19:45;22.80;49.70
38746;DHT22;24488;0.000;0.000;2023-11-19T07:22:11;22.80;50.10
38746;DHT22;24488;0.000;0.000;2023-11-19T07:24:38;22.80;50.70
38746;DHT22;24488;0.000;0.000;2023-11-19T07:27:04;22.80;50.10
38746;DHT22;24488;0.000;0.000;2023-11-19T07:29:30;22.80;49.70
38746;DHT22;24488;0.000;0.000;2023-11-19T07:31:56;22.80;50.10
38746;DHT22;24488;0.000;0.000;2023-11-19T07:34:22;22.80;50.10
38746;DHT22;24488;0.000;0.000;2023-11-19T07:36:48;22.80;50.10
38746;DHT22;24488;0.000;0.000;2023-11-19T07:39:14;22.80;49.70
38746;DHT22;24488;0.000;0.000;2023-11-19T07:41:39;22.80;50.10
38746;DHT22;24488;0.000;0.000;2023-11-19T07:44:05;22.80;50.10
38746;DHT22;24488;0.000;0.000;2023-11-19T07:46:31;22.80;50.10
38746;DHT22;24488;0.000;0.000;2023-11-19T07:48:57;22.80;49.70
38746;DHT22;24488;0.000;0.000;2023-11-19T07:51:23;22.70;50.20
38746;DHT22;24488;0.000;0.000;2023-11-19T07:53:48;22.80;50.70
38746;DHT22;24488;0.000;0.000;2023-11-19T07:56:14;22.70;50.10
38746;DHT22;24488;0.000;0.000;2023-11-19T07:58:40;22.80;49.70
38746;DHT22;24488;0.000;0.000;2023-11-19T08:01:07;22.70;50.10
38746;DHT22;24488;0.000;0.000;2023-11-19T08:03:32;22.80;50.10
38746;DHT22;24488;0.000;0.000;2023-11-19T08:05:59;22.70;50.10
38746;DHT22;24488;0.000;0.000;2023-11-19T08:08:25;22.70;49.70
38746;DHT22;24488;0.000;0.000;2023-11-19T08:10:51;22.80;50.10
38746;DHT22;24488;0.000;0.000;2023-11-19T08:13:19;22.70;50.10
38746;DHT22;24488;0.000;0.000;2023-11-19T08:15:45;22.70;50.10
38746;DHT22;24488;0.000;0.000;2023-11-19T08:18:11;22.70;49.70
38746;DHT22;24488;0.000;0.000;2023-11-19T08:20:37;22.70;50.10
38746;DHT22;24488;0.000;0.000;2023-11-19T08:23:02;22.80;50.20
38746;DHT22;24488;0.000;0.000;2023-11-19T08:25:31;22.70;50.10
38746;DHT22;24488;0.000;0.000;2023-11-19T08:27:59;22.70;49.70
38746;DHT22;24488;0.000;0.000;2023-11-19T08:30:25;22.80;50.20
38746;DHT22;24488;0.000;0.000;2023-11-19T08:32:50;22.70;50.10
38746;DHT22;24488;0.000;0.000;2023-11-19T08:35:16;22.70;50.10
38746;DHT22;24488;0.000;0.000;2023-11-19T08:37:42;22.70;50.10
38746;DHT22;24488;0.000;0.000;2023-11-19T08:40:07;22.70;49.60
38746;DHT22;24488;0.000;0.000;2023-11-19T08:42:33;22.70;50.10
38746;DHT22;24488;0.000;0.000;2023-11-19T08:44:59;22.80;50.10
38746;DHT22;24488;0.000;0.000;2023-11-19T08:47:24;22.80;50.10
38746;DHT22;24488;0.000;0.000;2023-11-19T08:49:50;22.80;49.70
38746;DHT22;24488;0.000;0.000;2023-11-19T08:52:17;22.80;50.10
38746;DHT22;24488;0.000;0.000;2023-11-19T08:54:43;22.80;50.20
38746;DHT22;24488;0.000;0.000;2023-11-19T08:57:09;22.80;50.20
38746;DHT22;24488;0.000;0.000;2023-11-19T08:59:34;22.70;49.70
38746;DHT22;24488;0.000;0.000;2023-11-19T09:02:00;22.70;50.10
38746;DHT22;24488;0.000;0.000;2023-11-19T09:04:27;22.80;50.20
38746;DHT22;24488;0.000;0.000;2023-11-19T09:06:52;22.80;50.10
38746;DHT22;24488;0.000;0.000;2023-11-19T09:09:18;22.70;49.70
38746;DHT22;24488;0.000;0.000;2023-11-19T09:11:44;22.70;50.20
38746;DHT22;24488;0.000;0.000;2023-11-19T09:14:09;22.70;50.10
38746;DHT22;24488;0.000;0.000;2023-11-19T09:16:35;22.70;50.10
38746;DHT22;24488;0.000;0.000;2023-11-19T09:19:00;22.70;49.70
38746;DHT22;24488;0.000;0.000;2023-11-19T09:21:28;22.70;50.20
38746;DHT22;24488;0.000;0.000;2023-11-19T09:23:56;22.70;50.10
38746;DHT22;24488;0.000;0.000;2023-11-19T09:26:22;22.80;50.00
38746;DHT22;24488;0.000;0.000;2023-11-19T09:28:48;22.80;49.60
38746;DHT22;24488;0.000;0.000;2023-11-19T09:31:14;22.80;50.10
38746;DHT22;24488;0.000;0.000;2023-11-19T09:33:40;22.80;50.10
38746;DHT22;24488;0.000;0.000;2023-11-19T09:36:06;22.80;50.10
38746;DHT22;24488;0.000;0.000;2023-11-19T09:38:31;22.70;49.70
38746;DHT22;24488;0.000;0.000;2023-11-19T09:40:58;22.70;50.10
38746;DHT22;24488;0.000;0.000;2023-11-19T09:43:25;22.70;50.10
38746;DHT22;24488;0.000;0.000;2023-11-19T09:45:53;22.70;50.20
38746;DHT22;24488;0.000;0.000;2023-11-19T09:48:20;22.70;49.70
38746;DHT22;24488;0.000;0.000;2023-11-19T09:50:46;22.70;50.20
38746;DHT22;24488;0.000;0.000;2023-11-19T09:53:13;22.60;50.20
38746;DHT22;24488;0.000;0.000;2023-11-19T09:55:39;22.70;50.20
38746;DHT22;24488;0.000;0.000;2023-11-19T09:58:05;22.60;49.70
38746;DHT22;24488;0.000;0.000;2023-11-19T10:00:30;22.70;50.30
38746;DHT22;24488;0.000;0.000;2023-11-19T10:02:56;22.70;50.20
38746;DHT22;24488;0.000;0.000;2023-11-19T10:05:22;22.70;50.20
38746;DHT22;24488;0.000;0.000;2023-11-19T10:07:49;22.70;50.20
38746;DHT22;24488;0.000;0.000;2023-11-19T10:10:15;22.70;49.70
38746;DHT22;24488;0.000;0.000;2023-11-19T10:12:44;22.70;50.20
38746;DHT22;24488;0.000;0.000;2023-11-19T10:15:32;22.70;50.10
38746;DHT22;24488;0.000;0.000;2023-11-19T10:18:01;22.70;49.70
38746;DHT22;24488;0.000;0.000;2023-11-19T10:20:26;22.70;50.10
38746;DHT22;24488;0.000;0.000;2023-11-19T10:22:52;22.70;50.10
38746;DHT22;24488;0.000;0.000;2023-11-19T10:25:26;22.70;50.10
38746;DHT22;24488;0.000;0.000;2023-11-19T10:27:53;22.70;50.10
38746;DHT22;24488;0.000;0.000;2023-11-19T10:30:29;22.70;49.60
38746;DHT22;24488;0.000;0.000;2023-11-19T10:35:34;22.70;50.10
38746;DHT22;24488;0.000;0.000;2023-11-19T10:38:23;22.70;49.70
38746;DHT22;24488;0.000;0.000;2023-11-19T10:40:50;22.70;50.10
38746;DHT22;24488;0.000;0.000;2023-11-19T10:43:16;22.70;50.10
38746;DHT22;24488;0.000;0.000;2023-11-19T10:45:42;22.70;50.70
38746;DHT22;24488;0.000;0.000;2023-11-19T10:48:08;22.70;49.70
38746;DHT22;24488;0.000;0.000;2023-11-19T10:50:38;22.70;50.20
38746;DHT22;24488;0.000;0.000;2023-11-19T10:53:05;22.70;50.10
38746;DHT22;24488;0.000;0.000;2023-11-19T10:55:32;22.70;50.10
38746;DHT22;24488;0.000;0.000;2023-11-19T10:58:04;22.80;49.80
38746;DHT22;24488;0.000;0.000;2023-11-19T11:00:37;22.80;50.30
38746;DHT22;24488;0.000;0.000;2023-11-19T11:03:05;22.80;50.30
38746;DHT22;24488;0.000;0.000;2023-11-19T11:05:35;22.80;50.50
38746;DHT22;24488;0.000;0.000;2023-11-19T11:08:02;22.90;50.20
38746;DHT22;24488;0.000;0.000;2023-11-19T11:10:31;22.90;50.60
38746;DHT22;24488;0.000;0.000;2023-11-19T11:12:59;22.90;50.80
38746;DHT22;24488;0.000;0.000;2023-11-19T11:15:28;22.90;50.80
38746;DHT22;24488;0.000;0.000;2023-11-19T11:20:22;23.00;50.30
38746;DHT22;24488;0.000;0.000;2023-11-19T11:22:52;23.00;50.80
38746;DHT22;24488;0.000;0.000;2023-11-19T11:31:23;23.00;50.70
38746;DHT22;24488;0.000;0.000;2023-11-19T11:34:02;23.00;50.90
38746;DHT22;24488;0.000;0.000;2023-11-19T11:39:34;23.00;50.70
38746;DHT22;24488;0.000;0.000;2023-11-19T11:42:30;23.00;51.10
38746;DHT22;24488;0.000;0.000;2023-11-19T11:45:05;23.00;51.20
38746;DHT22;24488;0.000;0.000;2023-11-19T11:50:11;23.00;50.70
38746;DHT22;24488;0.000;0.000;2023-11-19T11:55:27;23.10;51.10
38746;DHT22;24488;0.000;0.000;2023-11-19T11:57:54;23.10;51.00
38746;DHT22;24488;0.000;0.000;2023-11-19T12:03:04;23.10;51.00
38746;DHT22;24488;0.000;0.000;2023-11-19T12:05:32;23.10;50.90
38746;DHT22;24488;0.000;0.000;2023-11-19T12:07:59;23.20;50.30
38746;DHT22;24488;0.000;0.000;2023-11-19T12:10:30;23.20;50.70
38746;DHT22;24488;0.000;0.000;2023-11-19T12:13:00;23.20;50.90
38746;DHT22;24488;0.000;0.000;2023-11-19T12:15:26;23.10;50.80
38746;DHT22;24488;0.000;0.000;2023-11-19T12:17:56;23.20;50.70
38746;DHT22;24488;0.000;0.000;2023-11-19T12:20:22;23.20;50.20
38746;DHT22;24488;0.000;0.000;2023-11-19T12:22:49;23.20;50.60
38746;DHT22;24488;0.000;0.000;2023-11-19T12:25:15;23.20;50.60
38746;DHT22;24488;0.000;0.000;2023-11-19T12:27:42;23.10;50.60
38746;DHT22;24488;0.000;0.000;2023-11-19T12:30:09;23.10;50.20
38746;DHT22;24488;0.000;0.000;2023-11-19T12:32:38;23.10;50.70
38746;DHT22;24488;0.000;0.000;2023-11-19T12:35:07;23.10;50.60
38746;DHT22;24488;0.000;0.000;2023-11-19T12:37:40;23.10;50.60
38746;DHT22;24488;0.000;0.000;2023-11-19T12:40:25;23.10;50.10
38746;DHT22;24488;0.000;0.000;2023-11-19T12:42:51;23.10;50.60
38746;DHT22;24488;0.000;0.000;2023-11-19T12:45:18;23.10;50.60
38746;DHT22;24488;0.000;0.000;2023-11-19T12:47:46;23.10;50.60
38746;DHT22;24488;0.000;0.000;2023-11-19T12:50:13;23.00;50.10
38746;DHT22;24488;0.000;0.000;2023-11-19T12:52:39;23.00;50.60
38746;DHT22;24488;0.000;0.000;2023-11-19T12:55:05;23.00;50.50
38746;DHT22;24488;0.000;0.000;2023-11-19T12:57:49;23.00;50.40
38746;DHT22;24488;0.000;0.000;2023-11-19T13:00:18;23.00;50.00
38746;DHT22;24488;0.000;0.000;2023-11-19T13:02:56;23.00;50.50
38746;DHT22;24488;0.000;0.000;2023-11-19T13:05:26;22.90;50.40
38746;DHT22;24488;0.000;0.000;2023-11-19T13:08:08;22.90;50.40
38746;DHT22;24488;0.000;0.000;2023-11-19T13:10:53;22.90;50.00
38746;DHT22;24488;0.000;0.000;2023-11-19T13:13:21;22.90;50.50
38746;DHT22;24488;0.000;0.000;2023-11-19T13:15:46;22.90;50.40
38746;DHT22;24488;0.000;0.000;2023-11-19T13:18:13;22.90;50.00
38746;DHT22;24488;0.000;0.000;2023-11-19T13:20:41;22.90;50.40
38746;DHT22;24488;0.000;0.000;2023-11-19T13:23:07;22.90;50.40
38746;DHT22;24488;0.000;0.000;2023-11-19T13:25:33;22.90;50.40
38746;DHT22;24488;0.000;0.000;2023-11-19T13:27:59;22.90;50.00
38746;DHT22;24488;0.000;0.000;2023-11-19T13:30:25;22.90;50.50
38746;DHT22;24488;0.000;0.000;2023-11-19T13:32:51;22.90;50.40
38746;DHT22;24488;0.000;0.000;2023-11-19T13:35:17;22.80;50.30
38746;DHT22;24488;0.000;0.000;2023-11-19T13:37:43;22.80;50.40
38746;DHT22;24488;0.000;0.000;2023-11-19T13:40:10;22.80;50.00
38746;DHT22;24488;0.000;0.000;2023-11-19T13:42:40;22.80;50.50
38746;DHT22;24488;0.000;0.000;2023-11-19T13:45:10;22.80;50.50
38746;DHT22;24488;0.000;0.000;2023-11-19T13:47:44;22.80;50.50
38746;DHT22;24488;0.000;0.000;2023-11-19T13:50:10;22.80;50.00
38746;DHT22;24488;0.000;0.000;2023-11-19T13:52:38;22.90;50.50
38746;DHT22;24488;0.000;0.000;2023-11-19T13:55:07;22.90;50.50
38746;DHT22;24488;0.000;0.000;2023-11-19T13:57:37;22.90;50.40
38746;DHT22;24488;0.000;0.000;2023-11-19T14:00:03;22.90;50.00
38746;DHT22;24488;0.000;0.000;2023-11-19T14:02:31;22.90;50.50
38746;DHT22;24488;0.000;0.000;2023-11-19T14:04:57;22.90;50.40
38746;DHT22;24488;0.000;0.000;2023-11-19T14:07:23;22.90;50.40
38746;DHT22;24488;0.000;0.000;2023-11-19T14:09:49;22.90;49.90
38746;DHT22;24488;0.000;0.000;2023-11-19T14:12:15;22.90;50.30
38746;DHT22;24488;0.000;0.000;2023-11-19T14:14:41;22.90;50.40
38746;DHT22;24488;0.000;0.000;2023-11-19T14:17:07;22.90;50.30
38746;DHT22;24488;0.000;0.000;2023-11-19T14:19:33;22.90;49.90
38746;DHT22;24488;0.000;0.000;2023-11-19T14:21:59;22.90;50.30
38746;DHT22;24488;0.000;0.000;2023-11-19T14:24:25;22.90;50.30
38746;DHT22;24488;0.000;0.000;2023-11-19T14:26:51;22.90;50.30
38746;DHT22;24488;0.000;0.000;2023-11-19T14:29:17;22.90;49.80
38746;DHT22;24488;0.000;0.000;2023-11-19T14:31:42;22.90;50.20
38746;DHT22;24488;0.000;0.000;2023-11-19T14:34:08;22.90;50.20
38746;DHT22;24488;0.000;0.000;2023-11-19T14:36:33;22.90;50.20
38746;DHT22;24488;0.000;0.000;2023-11-19T14:39:00;22.90;49.70
38746;DHT22;24488;0.000;0.000;2023-11-19T14:41:26;22.90;50.20
38746;DHT22;24488;0.000;0.000;2023-11-19T14:43:51;22.90;50.20
38746;DHT22;24488;0.000;0.000;2023-11-19T14:46:17;22.90;50.20
38746;DHT22;24488;0.000;0.000;2023-11-19T14:48:43;22.90;49.80
38746;DHT22;24488;0.000;0.000;2023-11-19T14:51:08;22.90;50.30
38746;DHT22;24488;0.000;0.000;2023-11-19T14:53:34;22.90;50.20
38746;DHT22;24488;0.000;0.000;2023-11-19T14:56:00;22.90;50.20
38746;DHT22;24488;0.000;0.000;2023-11-19T14:58:26;22.90;49.80
38746;DHT22;24488;0.000;0.000;2023-11-19T15:00:52;22.90;50.20
38746;DHT22;24488;0.000;0.000;2023-11-19T15:03:17;22.90;50.20
38746;DHT22;24488;0.000;0.000;2023-11-19T15:05:47;22.90;50.20
38746;DHT22;24488;0.000;0.000;2023-11-19T15:08:13;22.90;49.80
38746;DHT22;24488;0.000;0.000;2023-11-19T15:10:41;22.80;50.30
38746;DHT22;24488;0.000;0.000;2023-11-19T15:13:07;22.90;50.20
38746;DHT22;24488;0.000;0.000;2023-11-19T15:15:34;22.90;50.20
38746;DHT22;24488;0.000;0.000;2023-11-19T15:17:59;22.80;49.80
38746;DHT22;24488;0.000;0.000;2023-11-19T15:20:25;22.80;50.80
38746;DHT22;24488;0.000;0.000;2023-11-19T15:22:55;22.80;50.20
38746;DHT22;24488;0.000;0.000;2023-11-19T15:25:21;22.80;50.30
38746;DHT22;24488;0.000;0.000;2023-11-19T15:27:48;22.80;50.20
38746;DHT22;24488;0.000;0.000;2023-11-19T15:30:13;22.90;49.80
38746;DHT22;24488;0.000;0.000;2023-11-19T15:32:39;22.80;50.20
38746;DHT22;24488;0.000;0.000;2023-11-19T15:35:06;22.80;50.20
38746;DHT22;24488;0.000;0.000;2023-11-19T15:37:32;22.80;50.20
38746;DHT22;24488;0.000;0.000;2023-11-19T15:39:58;22.80;49.70
38746;DHT22;24488;0.000;0.000;2023-11-19T15:42:24;22.90;50.30
38746;DHT22;24488;0.000;0.000;2023-11-19T15:44:49;22.80;50.20
38746;DHT22;24488;0.000;0.000;2023-11-19T15:47:15;22.80;50.20
38746;DHT22;24488;0.000;0.000;2023-11-19T15:49:41;22.80;49.80
38746;DHT22;24488;0.000;0.000;2023-11-19T15:52:06;22.80;50.20
38746;DHT22;24488;0.000;0.000;2023-11-19T15:54:32;22.80;50.20
38746;DHT22;24488;0.000;0.000;2023-11-19T15:56:58;22.80;50.20
38746;DHT22;24488;0.000;0.000;2023-11-19T15:59:23;22.80;49.80
38746;DHT22;24488;0.000;0.000;2023-11-19T16:01:49;22.80;50.20
38746;DHT22;24488;0.000;0.000;2023-11-19T16:04:14;22.80;50.20
38746;DHT22;24488;0.000;0.000;2023-11-19T16:06:40;22.80;50.30